createdAt,value
2022-10-19T00:01:11.143Z,5.25
2022-10-19T00:06:18.413Z,4.88
2022-10-19T00:11:18.716Z,5.10
2022-10-19T00:16:21.118Z,4.88
2022-10-19T00:21:22.627Z,4.20
2022-10-19T00:26:22.273Z,4.78
2022-10-19T00:31:25.863Z,4.22
2022-10-19T00:36:28.023Z,4.73
2022-10-19T00:41:28.811Z,4.55
2022-10-19T00:46:31.708Z,4.60
2022-10-19T00:51:35.314Z,5.35
2022-10-19T00:56:38.826Z,5.25
2022-10-19T01:01:37.044Z,5.68
2022-10-19T01:06:36.301Z,5.30
2022-10-19T01:11:52.210Z,5.65
2022-10-19T01:17:09.549Z,5.97
2022-10-19T01:22:31.548Z,6.07
2022-10-19T01:27:42.491Z,6.55
2022-10-19T01:33:22.677Z,5.60
2022-10-19T01:38:35.604Z,5.43
2022-10-19T01:43:54.465Z,5.18
2022-10-19T01:49:02.402Z,5.95
2022-10-19T01:54:06.671Z,5.72
2022-10-19T01:59:07.102Z,5.90
2022-10-19T02:04:07.038Z,5.80
2022-10-19T02:09:08.110Z,5.47
2022-10-19T02:14:10.494Z,5.35
2022-10-19T02:19:13.742Z,6.13
2022-10-19T02:24:12.962Z,5.43
2022-10-19T02:29:14.384Z,5.10
2022-10-19T02:34:13.919Z,5.68
2022-10-19T02:39:14.121Z,5.60
2022-10-19T02:44:30.675Z,6.63
2022-10-19T02:49:30.901Z,6.57
2022-10-19T02:54:33.562Z,6.80
2022-10-19T02:59:32.571Z,7.57
2022-10-19T03:04:37.808Z,7.70
2022-10-19T03:09:37.188Z,7.25
2022-10-19T03:14:36.038Z,7.38
2022-10-19T03:19:35.196Z,7.88
2022-10-19T03:24:34.815Z,6.50
2022-10-19T03:29:33.524Z,6.88
2022-10-19T03:34:43.951Z,7.03
2022-10-19T03:39:44.713Z,8.00
2022-10-19T03:44:47.835Z,7.95
2022-10-19T03:49:46.500Z,7.40
2022-10-19T03:54:50.365Z,8.18
2022-10-19T03:59:52.779Z,7.38
2022-10-19T04:04:53.458Z,6.53
2022-10-19T04:09:52.695Z,7.75
2022-10-19T04:14:57.341Z,7.75
2022-10-19T04:19:58.446Z,7.55
2022-10-19T04:24:57.873Z,7.32
2022-10-19T04:29:55.551Z,7.43
2022-10-19T04:34:53.154Z,7.70
2022-10-19T04:39:52.122Z,7.82
2022-10-19T04:44:51.686Z,8.52
2022-10-19T04:49:53.440Z,9.20
2022-10-19T04:54:54.103Z,11.10
2022-10-19T04:59:54.530Z,11.40
2022-10-19T05:04:56.341Z,11.82
2022-10-19T05:09:57.465Z,11.57
2022-10-19T05:15:00.933Z,8.95
2022-10-19T05:20:04.790Z,10.20
2022-10-19T05:25:08.103Z,8.55
2022-10-19T05:30:08.542Z,8.75
2022-10-19T05:35:07.179Z,10.57
2022-10-19T05:40:05.855Z,10.25
2022-10-19T05:45:04.090Z,9.10
2022-10-19T05:50:09.583Z,8.98
2022-10-19T05:55:11.362Z,9.50
2022-10-19T06:00:13.083Z,9.52
2022-10-19T06:05:13.437Z,7.90
2022-10-19T06:10:14.732Z,8.20
2022-10-19T06:15:16.278Z,7.35
2022-10-19T06:20:16.858Z,7.38
2022-10-19T06:25:20.621Z,8.50
2022-10-19T06:30:22.690Z,7.07
2022-10-19T06:35:23.335Z,7.20
2022-10-19T06:40:25.319Z,8.35
2022-10-19T06:45:27.204Z,8.57
2022-10-19T06:50:26.345Z,9.23
2022-10-19T06:55:24.302Z,8.60
2022-10-19T07:00:23.388Z,8.98
2022-10-19T07:05:21.240Z,8.80
2022-10-19T07:10:21.785Z,9.70
2022-10-19T07:15:43.512Z,11.10
2022-10-19T07:21:05.797Z,9.43
2022-10-19T07:26:22.457Z,9.80
2022-10-19T07:37:36.790Z,9.93
2022-10-19T07:42:38.318Z,9.38
2022-10-19T07:47:37.100Z,9.77
2022-10-19T07:53:04.871Z,8.85
2022-10-19T07:58:05.662Z,8.48
2022-10-19T08:03:43.666Z,7.95
2022-10-19T08:08:40.603Z,6.43
2022-10-19T08:13:53.610Z,7.65
2022-10-19T08:19:13.869Z,8.33
2022-10-19T08:24:15.638Z,8.85
2022-10-19T08:40:59.197Z,6.63
2022-10-19T08:46:24.327Z,6.07
2022-10-19T08:51:24.101Z,6.22
2022-10-19T08:56:52.060Z,5.55
2022-10-19T09:01:59.425Z,5.30
2022-10-19T09:07:20.660Z,5.90
2022-10-19T09:12:53.893Z,5.15
2022-10-19T09:17:55.593Z,5.20
2022-10-19T09:23:29.241Z,5.40
2022-10-19T09:29:20.599Z,4.95
2022-10-19T09:34:33.797Z,5.10
2022-10-19T09:39:50.412Z,5.57
2022-10-19T09:45:02.223Z,6.18
2022-10-19T09:50:10.110Z,5.85
2022-10-19T09:55:35.174Z,5.72
2022-10-19T10:01:11.982Z,5.88
2022-10-19T10:06:31.985Z,5.22
2022-10-19T10:17:08.072Z,5.40
2022-10-19T10:22:40.570Z,4.95
2022-10-19T10:27:40.572Z,5.00
2022-10-19T10:32:44.409Z,3.90
2022-10-19T10:37:52.274Z,4.20
2022-10-19T10:42:58.198Z,3.95
2022-10-19T10:47:57.402Z,4.03
2022-10-19T10:53:35.914Z,3.92
2022-10-19T10:58:44.473Z,4.53
2022-10-19T11:03:54.647Z,3.47
2022-10-19T11:09:52.450Z,3.75
2022-10-19T11:15:25.244Z,3.22
2022-10-19T11:20:29.782Z,3.17
2022-10-19T11:26:17.650Z,3.17
2022-10-19T11:31:22.543Z,3.13
2022-10-19T11:36:21.603Z,2.95
2022-10-19T11:41:27.726Z,2.30
2022-10-19T11:46:33.355Z,3.13
2022-10-19T11:51:37.370Z,3.22
2022-10-19T12:02:20.622Z,2.53
2022-10-19T12:07:51.007Z,3.03
2022-10-19T12:13:00.766Z,3.03
2022-10-19T12:18:09.913Z,2.80
2022-10-19T12:23:40.221Z,2.85
2022-10-19T12:29:00.389Z,2.60
2022-10-19T12:34:37.160Z,2.92
2022-10-19T12:40:26.313Z,3.00
2022-10-19T12:46:08.698Z,2.88
2022-10-19T12:51:14.991Z,2.92
2022-10-19T12:56:51.366Z,2.83
2022-10-19T13:02:07.683Z,4.75
2022-10-19T13:07:18.268Z,3.60
2022-10-19T13:12:25.785Z,2.97
2022-10-19T13:23:30.342Z,2.55
2022-10-19T13:28:37.476Z,4.38
2022-10-19T13:39:28.867Z,2.40
2022-10-19T13:44:31.293Z,2.13
2022-10-19T13:50:00.976Z,2.33
2022-10-19T13:55:22.208Z,2.60
2022-10-19T14:00:46.259Z,2.53
2022-10-19T14:06:04.278Z,2.70
2022-10-19T14:11:55.099Z,2.45
2022-10-19T14:17:29.926Z,3.30
2022-10-19T14:22:40.023Z,2.75
2022-10-19T14:27:49.009Z,2.75
2022-10-19T14:32:48.932Z,2.97
2022-10-19T14:37:46.968Z,2.30
2022-10-19T14:42:47.752Z,2.33
2022-10-19T14:48:00.457Z,3.90
2022-10-19T14:53:39.125Z,3.60
2022-10-19T14:58:45.614Z,2.75
2022-10-19T15:04:00.517Z,2.58
2022-10-19T15:09:04.897Z,3.10
2022-10-19T15:14:08.816Z,2.70
2022-10-19T15:19:26.028Z,2.80
2022-10-19T15:24:31.112Z,18.38
2022-10-19T15:35:21.053Z,64.65
2022-10-19T15:41:16.101Z,74.78
2022-10-19T15:46:25.539Z,22.58
2022-10-19T15:51:25.666Z,15.88
2022-10-19T15:56:27.700Z,26.23
2022-10-19T16:01:29.910Z,31.83
2022-10-19T16:06:33.069Z,30.33
2022-10-19T16:11:35.564Z,20.55
2022-10-19T16:16:42.051Z,23.58
2022-10-19T16:21:46.726Z,24.17
2022-10-19T16:26:57.610Z,19.42
2022-10-19T16:32:05.609Z,18.75
2022-10-19T16:37:15.251Z,22.15
2022-10-19T16:42:18.103Z,21.75
2022-10-19T16:53:06.056Z,24.05
2022-10-19T16:58:07.437Z,25.55
2022-10-19T17:03:13.425Z,27.95
2022-10-19T17:08:15.630Z,25.90
2022-10-19T17:13:13.819Z,23.35
2022-10-19T17:18:11.715Z,27.25
2022-10-19T17:23:35.474Z,26.17
2022-10-19T17:34:20.873Z,23.27
2022-10-19T17:39:28.951Z,20.02
2022-10-19T17:44:54.836Z,19.33
2022-10-19T17:50:01.762Z,18.30
2022-10-19T18:01:13.098Z,12.30
2022-10-19T18:06:54.409Z,13.20
2022-10-19T18:12:05.066Z,13.98
2022-10-19T18:17:44.308Z,15.60
2022-10-19T18:22:54.105Z,17.92
2022-10-19T18:28:37.266Z,17.75
2022-10-19T18:33:41.987Z,18.63
2022-10-19T18:38:42.632Z,23.05
2022-10-19T18:44:05.463Z,20.35
2022-10-19T18:49:15.639Z,21.33
2022-10-19T18:54:38.495Z,19.88
2022-10-19T19:04:56.779Z,17.55
2022-10-19T19:09:59.374Z,17.08
2022-10-19T19:14:59.938Z,14.50
2022-10-19T19:20:05.658Z,13.93
2022-10-19T19:25:05.979Z,13.18
2022-10-19T19:30:05.240Z,13.57
2022-10-19T19:35:03.963Z,16.67
2022-10-19T19:40:27.615Z,14.45
2022-10-19T19:45:26.021Z,12.97
2022-10-19T19:50:30.553Z,11.70
2022-10-19T19:55:44.053Z,7.93
2022-10-19T20:00:50.057Z,6.50
2022-10-19T20:05:51.692Z,6.18
2022-10-19T20:10:53.880Z,5.97
2022-10-19T20:15:54.261Z,5.75
2022-10-19T20:21:00.965Z,6.22
2022-10-19T20:26:18.832Z,5.28
2022-10-19T20:31:18.420Z,5.15
2022-10-19T20:36:26.598Z,5.45
2022-10-19T20:41:31.274Z,5.93
2022-10-19T20:46:39.169Z,5.88
2022-10-19T20:51:42.463Z,5.38
2022-10-19T20:56:43.992Z,4.80
2022-10-19T21:01:46.061Z,5.10
2022-10-19T21:06:46.509Z,4.45
2022-10-19T21:11:47.516Z,4.30
2022-10-19T21:16:47.478Z,4.53
2022-10-19T21:21:50.796Z,5.07
2022-10-19T21:26:55.263Z,4.82
2022-10-19T21:31:53.957Z,4.80
2022-10-19T21:36:54.697Z,4.55
2022-10-19T21:41:53.807Z,4.75
2022-10-19T21:46:53.413Z,6.82
2022-10-19T21:51:56.384Z,7.40
2022-10-19T21:56:56.742Z,9.68
2022-10-19T22:01:58.058Z,9.18
2022-10-19T22:06:59.744Z,8.00
2022-10-19T22:11:58.804Z,8.70
2022-10-19T22:17:12.547Z,7.35
2022-10-19T22:22:11.353Z,7.22
2022-10-19T22:27:09.885Z,7.30
2022-10-19T22:32:19.233Z,6.88
2022-10-19T22:37:20.801Z,7.00
2022-10-19T22:42:26.942Z,6.65
2022-10-19T22:47:30.219Z,8.00
2022-10-19T22:52:29.892Z,6.83
2022-10-19T22:57:30.714Z,5.88
2022-10-19T23:02:30.939Z,5.07
2022-10-19T23:07:33.596Z,4.30
2022-10-19T23:12:34.211Z,5.35
2022-10-19T23:17:35.897Z,4.55
2022-10-19T23:22:33.726Z,4.18
2022-10-19T23:27:52.120Z,4.28
2022-10-19T23:33:00.227Z,4.60
2022-10-19T23:37:59.875Z,3.70
2022-10-19T23:42:59.259Z,4.22
2022-10-19T23:47:59.718Z,4.13
2022-10-19T23:53:02.273Z,4.43
2022-10-19T23:58:06.017Z,4.90
